Time;durP1;ratioP1;P1;durP2;ratioP2;P2;SDS_P1;SDS_P2;PMS_P1;PMS_P2;Temp;Humidity;BMP_temperature;BMP_pressure;BME280_temperature;BME280_humidity;BME280_pressure;Samples;Min_cycle;Max_cycle;Signal;HPM_P1;HPM_P2
2022/04/20 00:01:54;;;;;;;6.78;3.40;;;8.90;99.90;;;;;;4908825;29;20544;-81
2022/04/20 00:04:20;;;;;;;6.75;3.45;;;8.90;99.90;;;;;;4908070;29;20131;-81
2022/04/20 00:06:45;;;;;;;5.57;3.13;;;8.90;99.90;;;;;;4901250;29;20047;-80
2022/04/20 00:09:11;;;;;;;7.72;3.53;;;8.80;99.90;;;;;;4888127;29;20048;-80
2022/04/20 00:11:37;;;;;;;6.35;3.53;;;8.80;99.90;;;;;;4900838;29;20661;-81
2022/04/20 00:14:03;;;;;;;7.28;3.45;;;8.80;99.90;;;;;;4905168;29;20537;-80
2022/04/20 00:16:29;;;;;;;7.43;3.38;;;8.70;99.90;;;;;;4917600;29;20642;-81
2022/04/20 00:18:54;;;;;;;6.85;3.08;;;8.70;99.90;;;;;;4891837;29;20388;-80
2022/04/20 00:21:20;;;;;;;6.72;2.92;;;8.70;99.90;;;;;;4901845;29;20127;-80
2022/04/20 00:23:46;;;;;;;6.95;3.47;;;8.60;99.90;;;;;;4906529;29;20055;-81
2022/04/20 00:26:12;;;;;;;7.63;3.35;;;8.60;99.90;;;;;;4912853;29;20055;-79
2022/04/20 00:28:37;;;;;;;6.57;2.83;;;8.50;99.90;;;;;;4892649;29;20103;-79
2022/04/20 00:31:03;;;;;;;4.70;3.00;;;8.50;99.90;;;;;;4899434;29;20044;-79
2022/04/20 00:33:29;;;;;;;5.78;3.15;;;8.50;99.90;;;;;;4900275;29;20489;-79
2022/04/20 00:35:55;;;;;;;5.13;3.25;;;8.50;99.90;;;;;;4900883;29;20048;-78
2022/04/20 00:38:20;;;;;;;3.58;2.45;;;8.40;99.90;;;;;;4901629;29;20174;-80
2022/04/20 00:40:50;;;;;;;4.60;3.13;;;8.40;99.90;;;;;;4915703;29;20127;-79
2022/04/20 00:43:16;;;;;;;7.18;3.05;;;8.40;99.90;;;;;;4901516;29;20052;-79
2022/04/20 00:45:42;;;;;;;6.65;2.85;;;8.40;99.90;;;;;;4900337;29;20529;-80
2022/04/20 00:48:12;;;;;;;3.92;2.92;;;8.30;99.90;;;;;;4876001;29;20142;-79
2022/04/20 00:50:42;;;;;;;4.78;2.67;;;8.30;99.90;;;;;;4913128;29;20438;-79
2022/04/20 00:53:08;;;;;;;6.20;2.70;;;8.30;99.90;;;;;;4913150;29;20075;-80
2022/04/20 00:55:34;;;;;;;4.55;2.92;;;8.30;99.90;;;;;;4899898;29;20072;-79
2022/04/20 00:58:00;;;;;;;4.65;2.65;;;8.20;99.90;;;;;;4897749;29;20078;-79
2022/04/20 01:00:27;;;;;;;6.00;2.80;;;8.20;99.90;;;;;;4885903;29;20051;-80
2022/04/20 01:02:53;;;;;;;4.10;2.92;;;8.20;99.90;;;;;;4917703;29;20048;-79
2022/04/20 01:05:21;;;;;;;6.07;3.00;;;8.10;99.90;;;;;;4888093;29;20051;-80
2022/04/20 01:07:48;;;;;;;4.22;2.50;;;8.00;99.90;;;;;;4924152;29;20063;-80
2022/04/20 01:10:14;;;;;;;5.70;2.83;;;8.10;99.90;;;;;;4915361;29;20444;-78
2022/04/20 01:12:44;;;;;;;3.83;2.60;;;8.00;99.90;;;;;;4888202;29;20036;-79
2022/04/20 01:15:10;;;;;;;4.25;2.60;;;8.00;99.90;;;;;;4919451;29;20063;-78
2022/04/20 01:17:36;;;;;;;4.85;2.55;;;7.90;99.90;;;;;;4917440;29;20398;-79
2022/04/20 01:20:02;;;;;;;4.22;2.47;;;8.00;99.90;;;;;;4894145;29;20052;-79
2022/04/20 01:22:28;;;;;;;5.05;3.08;;;8.20;99.90;;;;;;4886902;29;20166;-81
2022/04/20 01:24:54;;;;;;;4.72;2.97;;;7.90;99.90;;;;;;4909364;29;20122;-79
2022/04/20 01:27:20;;;;;;;5.25;2.90;;;7.80;99.90;;;;;;4904173;29;20071;-79
2022/04/20 01:29:47;;;;;;;6.57;3.17;;;7.80;99.90;;;;;;4917685;29;20044;-79
2022/04/20 01:32:13;;;;;;;6.15;2.90;;;7.80;99.90;;;;;;4907969;29;20075;-79
2022/04/20 01:34:39;;;;;;;4.30;3.00;;;8.60;99.90;;;;;;4905337;29;20158;-80
2022/04/20 01:37:05;;;;;;;4.22;2.83;;;7.70;99.90;;;;;;4902841;29;20124;-79
2022/04/20 01:39:30;;;;;;;3.78;2.90;;;7.60;99.90;;;;;;4886538;29;20047;-80
2022/04/20 01:41:56;;;;;;;3.75;2.63;;;7.60;99.90;;;;;;4905004;29;20083;-78
2022/04/20 01:44:22;;;;;;;4.40;2.75;;;7.60;99.90;;;;;;4922345;29;20063;-81
2022/04/20 01:46:48;;;;;;;4.97;2.70;;;7.60;99.90;;;;;;4920812;29;20052;-80
2022/04/20 01:49:13;;;;;;;4.93;2.80;;;7.50;99.90;;;;;;4899932;29;20048;-79
2022/04/20 01:51:50;;;;;;;4.63;2.65;;;7.50;99.90;;;;;;4899946;29;20051;-78
2022/04/20 01:54:17;;;;;;;3.95;2.70;;;7.50;99.90;;;;;;4916894;29;20055;-79
2022/04/20 01:56:43;;;;;;;4.35;2.78;;;7.50;99.90;;;;;;4905877;29;20062;-80
2022/04/20 01:59:09;;;;;;;6.40;2.53;;;7.40;99.90;;;;;;4915991;29;20051;-79
2022/04/20 02:04:20;;;;;;;3.97;2.65;;;8.20;99.90;;;;;;4916943;28;20048;-80
2022/04/20 02:06:45;;;;;;;5.60;2.60;;;7.10;99.90;;;;;;4905570;29;20062;-79
2022/04/20 02:09:11;;;;;;;4.25;2.47;;;7.30;99.90;;;;;;4884698;29;20067;-79
2022/04/20 02:11:38;;;;;;;6.63;2.70;;;7.20;99.90;;;;;;4897863;29;20052;-79
2022/04/20 02:14:03;;;;;;;4.95;3.22;;;7.20;99.90;;;;;;4917883;29;20135;-80
2022/04/20 02:16:29;;;;;;;4.65;2.88;;;7.20;99.90;;;;;;4903311;29;20050;-79
2022/04/20 02:18:56;;;;;;;4.53;2.78;;;7.20;99.90;;;;;;4883639;29;20055;-80
2022/04/20 02:21:22;;;;;;;5.68;2.85;;;7.10;99.90;;;;;;4897330;29;20052;-79
2022/04/20 02:23:48;;;;;;;7.50;2.75;;;7.10;99.90;;;;;;4898439;29;20119;-79
2022/04/20 02:26:13;;;;;;;4.97;2.60;;;7.20;99.90;;;;;;4910922;29;20048;-80
2022/04/20 02:28:39;;;;;;;4.65;2.80;;;7.00;99.90;;;;;;4899185;29;20060;-78
2022/04/20 02:31:05;;;;;;;3.58;2.67;;;7.60;99.90;;;;;;4897885;29;20066;-78
2022/04/20 02:33:31;;;;;;;4.95;2.97;;;6.90;99.90;;;;;;4900666;29;20071;-78
2022/04/20 02:35:57;;;;;;;5.55;2.90;;;7.00;99.90;;;;;;4915779;29;20044;-78
2022/04/20 02:38:23;;;;;;;5.55;2.85;;;6.90;99.90;;;;;;4898297;29;20051;-79
2022/04/20 02:40:52;;;;;;;3.55;2.58;;;7.60;99.90;;;;;;4896973;29;20111;-79
2022/04/20 02:43:18;;;;;;;4.25;2.78;;;6.80;99.90;;;;;;4913904;29;20524;-78
2022/04/20 02:45:43;;;;;;;6.72;3.20;;;6.80;99.90;;;;;;4896718;29;20092;-79
2022/04/20 02:48:09;;;;;;;4.90;3.10;;;6.80;99.90;;;;;;4898702;29;20051;-80
2022/04/20 02:50:35;;;;;;;5.10;3.10;;;6.80;99.90;;;;;;4899000;29;20455;-79
2022/04/20 02:53:01;;;;;;;3.67;2.78;;;6.70;99.90;;;;;;4913681;29;20048;-79
2022/04/20 02:55:28;;;;;;;5.70;3.30;;;6.70;99.90;;;;;;4888452;29;20050;-80
2022/04/20 02:57:53;;;;;;;4.20;2.55;;;6.60;99.90;;;;;;4897131;29;20059;-81
2022/04/20 03:00:19;;;;;;;3.63;2.72;;;7.10;99.90;;;;;;4884148;29;20048;-79
2022/04/20 03:02:45;;;;;;;4.75;2.58;;;6.60;99.90;;;;;;4884112;29;20333;-78
2022/04/20 03:05:11;;;;;;;4.72;3.00;;;6.50;99.90;;;;;;4912992;29;20606;-78
2022/04/20 03:07:37;;;;;;;4.07;2.83;;;6.50;99.90;;;;;;4899352;29;20110;-79
2022/04/20 03:10:03;;;;;;;4.65;2.88;;;6.50;99.90;;;;;;4912434;29;20052;-80
2022/04/20 03:12:29;;;;;;;4.57;3.17;;;6.50;99.90;;;;;;4913154;29;20044;-80
2022/04/20 03:14:55;;;;;;;4.60;3.00;;;6.40;99.90;;;;;;4899133;29;20135;-79
2022/04/20 03:17:22;;;;;;;5.38;3.03;;;6.40;99.90;;;;;;4899679;29;20062;-79
2022/04/20 03:19:48;;;;;;;5.55;3.15;;;6.50;99.90;;;;;;4903142;29;21923;-81
2022/04/20 03:22:14;;;;;;;4.13;2.92;;;6.40;99.90;;;;;;4896606;29;20146;-79
2022/04/20 03:24:40;;;;;;;5.13;3.35;;;6.30;99.90;;;;;;4903250;29;20052;-79
2022/04/20 03:27:06;;;;;;;5.07;3.20;;;6.30;99.90;;;;;;4911979;29;20051;-79
2022/04/20 03:29:32;;;;;;;6.13;3.05;;;6.30;99.90;;;;;;4897528;29;20047;-80
2022/04/20 03:31:57;;;;;;;3.90;2.75;;;6.30;99.90;;;;;;4912725;29;20194;-80
2022/04/20 03:34:24;;;;;;;4.68;3.00;;;6.30;99.90;;;;;;4905447;29;20513;-79
2022/04/20 03:36:49;;;;;;;4.72;3.00;;;6.30;99.90;;;;;;4900669;29;20067;-79
2022/04/20 03:39:15;;;;;;;4.05;3.08;;;6.20;99.90;;;;;;4883911;29;20138;-79
2022/04/20 03:41:42;;;;;;;5.35;3.22;;;6.20;99.90;;;;;;4900302;29;20059;-79
2022/04/20 03:44:08;;;;;;;4.55;3.00;;;6.20;99.90;;;;;;4915735;29;20067;-80
2022/04/20 03:46:35;;;;;;;5.35;3.15;;;6.10;99.90;;;;;;4900085;29;20147;-80
2022/04/20 03:49:00;;;;;;;4.28;3.22;;;6.00;99.90;;;;;;4904809;29;20047;-80
2022/04/20 03:51:26;;;;;;;3.67;2.78;;;6.10;99.90;;;;;;4901179;29;20051;-80
2022/04/20 03:53:52;;;;;;;5.35;2.95;;;6.80;99.90;;;;;;4881893;29;20844;-81
2022/04/20 03:56:18;;;;;;;5.68;3.05;;;7.00;99.90;;;;;;4896828;29;20497;-80
2022/04/20 03:58:44;;;;;;;5.85;2.78;;;6.00;99.90;;;;;;4888345;29;20052;-80
2022/04/20 04:01:10;;;;;;;4.97;3.10;;;6.30;99.90;;;;;;4901828;29;20051;-80
2022/04/20 04:03:36;;;;;;;5.97;3.17;;;6.00;99.90;;;;;;4903395;29;20048;-79
2022/04/20 04:06:02;;;;;;;4.88;2.88;;;5.90;99.90;;;;;;4903686;29;20048;-78
2022/04/20 04:08:29;;;;;;;4.22;3.03;;;5.90;99.90;;;;;;4903169;29;20380;-79
2022/04/20 04:10:56;;;;;;;5.38;3.22;;;5.90;99.90;;;;;;4873600;29;20052;-79
2022/04/20 04:13:22;;;;;;;5.55;3.10;;;5.80;99.90;;;;;;4915929;29;20146;-78
2022/04/20 04:15:49;;;;;;;4.70;3.35;;;5.90;99.90;;;;;;4884193;29;20067;-80
2022/04/20 04:18:16;;;;;;;5.93;3.38;;;5.80;99.90;;;;;;4884617;29;20056;-79
2022/04/20 04:20:42;;;;;;;4.40;3.10;;;5.80;99.90;;;;;;4897337;29;20094;-79
2022/04/20 04:23:08;;;;;;;4.93;3.10;;;5.80;99.90;;;;;;4896550;29;20219;-79
2022/04/20 04:25:34;;;;;;;5.13;3.13;;;5.80;99.90;;;;;;4884847;29;20370;-79
2022/04/20 04:27:59;;;;;;;4.38;3.47;;;5.80;99.90;;;;;;4908421;29;20664;-79
2022/04/20 04:30:27;;;;;;;7.13;3.67;;;5.80;99.90;;;;;;4890141;29;20044;-79
2022/04/20 04:32:53;;;;;;;7.78;3.35;;;5.70;99.90;;;;;;4905726;29;20067;-80
2022/04/20 04:35:19;;;;;;;5.53;3.20;;;5.80;99.90;;;;;;4888431;29;20062;-80
2022/04/20 04:37:45;;;;;;;5.28;3.35;;;5.70;99.90;;;;;;4909140;29;20044;-81
2022/04/20 04:40:11;;;;;;;4.43;3.17;;;5.70;99.90;;;;;;4912203;29;20052;-80
2022/04/20 04:42:37;;;;;;;4.63;3.42;;;5.70;99.90;;;;;;4900875;29;20036;-79
2022/04/20 04:50:35;;;;;;;6.03;3.70;;;6.60;99.90;;;;;;4904521;29;20054;-80
2022/04/20 04:53:02;;;;;;;4.38;3.35;;;6.50;99.90;;;;;;4903182;29;20591;-80
2022/04/20 04:55:28;;;;;;;5.53;3.17;;;5.70;99.90;;;;;;4904697;29;20565;-78
2022/04/20 04:57:53;;;;;;;3.97;2.85;;;5.70;99.90;;;;;;4900294;29;20063;-79
2022/04/20 05:00:19;;;;;;;4.63;3.20;;;6.80;99.90;;;;;;4904373;29;20044;-79
2022/04/20 05:02:45;;;;;;;5.32;3.50;;;5.60;99.90;;;;;;4900507;29;20048;-79
2022/04/20 05:05:11;;;;;;;5.00;3.55;;;5.60;99.90;;;;;;4915023;29;20060;-80
2022/04/20 05:07:36;;;;;;;6.78;3.30;;;5.60;99.90;;;;;;4898149;29;20044;-81
2022/04/20 05:10:02;;;;;;;4.22;3.10;;;5.70;99.90;;;;;;4914708;29;20059;-80
2022/04/20 05:12:28;;;;;;;5.28;3.33;;;5.70;99.90;;;;;;4903431;29;20048;-80
2022/04/20 05:14:54;;;;;;;5.18;3.42;;;5.60;99.90;;;;;;4914417;29;20059;-80
2022/04/20 05:17:20;;;;;;;4.90;3.20;;;5.70;99.90;;;;;;4899461;29;20052;-80
2022/04/20 05:19:45;;;;;;;4.80;3.35;;;5.70;99.90;;;;;;4901435;29;20051;-81
2022/04/20 05:22:11;;;;;;;4.43;3.08;;;5.70;99.90;;;;;;4904131;29;20094;-80
2022/04/20 05:24:37;;;;;;;5.22;3.38;;;5.70;99.90;;;;;;4913940;29;20052;-80
2022/04/20 05:27:04;;;;;;;6.70;3.88;;;5.80;99.90;;;;;;4904794;29;20478;-79
2022/04/20 05:29:29;;;;;;;5.00;3.55;;;5.80;99.90;;;;;;4900861;29;20106;-80
2022/04/20 05:31:56;;;;;;;6.10;3.47;;;6.00;99.90;;;;;;4879783;29;20067;-80
2022/04/20 05:34:23;;;;;;;5.38;3.65;;;5.90;99.90;;;;;;4911125;29;20047;-80
2022/04/20 05:42:18;;;;;;;4.88;3.70;;;6.30;99.90;;;;;;4913860;29;20064;-80
2022/04/20 05:44:47;;;;;;;6.95;3.50;;;5.90;99.90;;;;;;4914281;29;20400;-82
2022/04/20 05:47:13;;;;;;;4.72;3.25;;;6.00;99.90;;;;;;4904888;29;20052;-80
2022/04/20 05:49:39;;;;;;;4.93;3.58;;;6.10;99.90;;;;;;4912532;29;20048;-80
2022/04/20 05:52:08;;;;;;;4.78;3.30;;;6.10;99.90;;;;;;4900916;29;20182;-80
2022/04/20 05:54:34;;;;;;;5.80;3.00;;;6.50;99.90;;;;;;4913756;29;20091;-79
2022/04/20 05:57:01;;;;;;;5.65;4.00;;;6.40;99.90;;;;;;4900145;29;20059;-80
2022/04/20 05:59:27;;;;;;;5.60;3.50;;;6.20;99.90;;;;;;4905370;29;20056;-81
2022/04/20 06:01:53;;;;;;;5.35;3.38;;;6.30;99.90;;;;;;4901694;29;20508;-80
2022/04/20 06:04:19;;;;;;;4.68;3.25;;;6.30;99.90;;;;;;4897673;29;20040;-80
2022/04/20 06:06:45;;;;;;;4.82;3.80;;;6.40;99.90;;;;;;4916047;29;20067;-80
2022/04/20 06:09:11;;;;;;;4.25;3.45;;;6.50;99.90;;;;;;4885893;29;20051;-80
2022/04/20 06:11:37;;;;;;;5.05;3.92;;;6.50;99.90;;;;;;4901456;29;20111;-82
2022/04/20 06:14:03;;;;;;;4.85;3.13;;;6.60;99.90;;;;;;4917493;29;20060;-79
2022/04/20 06:16:29;;;;;;;5.82;3.80;;;6.70;99.90;;;;;;4903741;29;20075;-80
2022/04/20 06:18:57;;;;;;;5.57;3.30;;;6.80;99.90;;;;;;4919671;29;20044;-79
2022/04/20 06:21:23;;;;;;;5.97;3.85;;;6.80;99.90;;;;;;4901073;29;20047;-80
2022/04/20 06:23:49;;;;;;;5.28;3.30;;;6.90;99.90;;;;;;4903684;29;20047;-80
2022/04/20 06:26:15;;;;;;;7.03;3.20;;;7.00;99.90;;;;;;4903571;29;20051;-79
2022/04/20 06:28:41;;;;;;;4.45;3.25;;;7.10;99.90;;;;;;4887105;29;20059;-80
2022/04/20 06:31:08;;;;;;;6.20;3.30;;;7.20;99.90;;;;;;4893581;29;20079;-79
2022/04/20 06:33:33;;;;;;;5.25;3.53;;;7.40;99.90;;;;;;4933655;28;20054;-81
2022/04/20 06:36:00;;;;;;;4.50;3.30;;;7.50;99.90;;;;;;4917593;29;20205;-79
2022/04/20 06:38:27;;;;;;;7.25;3.67;;;7.60;99.90;;;;;;4878141;29;20176;-79
2022/04/20 06:40:53;;;;;;;5.55;3.55;;;7.80;99.90;;;;;;4924475;29;20461;-80
2022/04/20 06:43:20;;;;;;;5.97;3.72;;;7.90;99.90;;;;;;4902526;29;20386;-86
2022/04/20 06:45:46;;;;;;;6.13;3.35;;;7.60;99.90;;;;;;4908859;29;20067;-80
2022/04/20 06:48:12;;;;;;;5.70;3.90;;;8.20;99.90;;;;;;4904960;29;20066;-81
2022/04/20 06:50:40;;;;;;;4.03;3.13;;;8.40;99.90;;;;;;4902256;29;20064;-78
2022/04/20 06:58:35;;;;;;;4.85;3.42;;;9.00;99.90;;;;;;4903646;29;20075;-80
2022/04/20 07:01:04;;;;;;;3.67;2.97;;;9.30;99.90;;;;;;4901231;29;20062;-81
2022/04/20 07:03:31;;;;;;;5.40;3.20;;;9.50;99.90;;;;;;4903162;29;20127;-80
2022/04/20 07:05:58;;;;;;;6.40;3.08;;;9.60;99.90;;;;;;4903097;29;20044;-82
2022/04/20 07:08:24;;;;;;;4.85;3.15;;;9.80;99.90;;;;;;4908983;29;20082;-81
2022/04/20 07:10:50;;;;;;;4.85;3.38;;;10.10;99.90;;;;;;4901685;29;20052;-82
2022/04/20 07:13:17;;;;;;;5.68;3.20;;;10.20;99.90;;;;;;4919809;29;20044;-82
2022/04/20 07:15:45;;;;;;;5.25;3.10;;;10.50;99.90;;;;;;4905216;29;20067;-79
2022/04/20 07:18:12;;;;;;;5.70;3.17;;;10.60;99.90;;;;;;4910932;29;20505;-80
2022/04/20 07:20:38;;;;;;;3.80;3.05;;;10.90;99.90;;;;;;4905055;29;20202;-80
2022/04/20 07:23:04;;;;;;;4.00;2.90;;;11.10;99.90;;;;;;4890913;29;20058;-81
2022/04/20 07:25:32;;;;;;;4.35;3.03;;;11.30;99.90;;;;;;4922648;29;20056;-80
2022/04/20 07:27:58;;;;;;;4.30;3.10;;;11.60;99.90;;;;;;4929493;29;20107;-79
2022/04/20 07:30:26;;;;;;;5.38;2.92;;;11.80;99.90;;;;;;4909931;29;20052;-80
2022/04/20 07:32:52;;;;;;;4.40;3.00;;;12.00;99.90;;;;;;4925373;29;20048;-79
2022/04/20 07:35:18;;;;;;;4.88;2.67;;;12.30;99.90;;;;;;4892132;29;20051;-79
2022/04/20 07:37:44;;;;;;;4.10;2.65;;;12.50;99.90;;;;;;4909341;29;20051;-80
2022/04/20 07:40:10;;;;;;;3.10;2.50;;;12.70;99.90;;;;;;4906115;29;20205;-79
2022/04/20 07:42:36;;;;;;;4.47;2.35;;;12.90;99.90;;;;;;4906579;29;20055;-79
2022/04/20 07:45:02;;;;;;;3.63;2.28;;;13.10;99.90;;;;;;4890301;29;20068;-79
2022/04/20 07:47:29;;;;;;;3.08;2.50;;;13.40;99.90;;;;;;4916432;29;20052;-79
2022/04/20 07:52:41;;;;;;;3.03;2.20;;;13.80;99.90;;;;;;4917395;29;20048;-82
2022/04/20 07:55:12;;;;;;;3.42;2.45;;;14.10;99.90;;;;;;4915763;29;20055;-80
2022/04/20 07:57:38;;;;;;;3.30;2.20;;;14.30;99.90;;;;;;4907009;29;20142;-80
2022/04/20 08:00:07;;;;;;;3.13;1.95;;;14.50;99.90;;;;;;4922265;29;20465;-81
2022/04/20 08:02:33;;;;;;;2.63;1.70;;;14.80;99.90;;;;;;4912109;29;20052;-79
2022/04/20 08:04:59;;;;;;;3.17;2.05;;;15.00;99.90;;;;;;4907398;29;20047;-78
2022/04/20 08:07:26;;;;;;;2.80;2.17;;;15.20;99.90;;;;;;4892952;29;20498;-80
2022/04/20 08:09:53;;;;;;;2.28;1.73;;;15.40;99.90;;;;;;4903955;29;20043;-80
2022/04/20 08:12:19;;;;;;;3.70;2.00;;;15.70;99.90;;;;;;4911406;29;20083;-79
2022/04/20 08:14:44;;;;;;;3.00;2.20;;;15.90;99.80;;;;;;4908899;29;20079;-81
2022/04/20 08:17:10;;;;;;;3.63;2.25;;;16.10;99.60;;;;;;4915062;29;20131;-81
2022/04/20 08:19:37;;;;;;;3.60;1.98;;;16.30;99.30;;;;;;4905878;29;20050;-81
2022/04/20 08:22:04;;;;;;;2.92;2.20;;;16.50;98.90;;;;;;4905347;29;20122;-81
2022/04/20 08:24:30;;;;;;;4.28;2.10;;;16.70;98.50;;;;;;4906736;29;20525;-80
2022/04/20 08:26:56;;;;;;;3.33;1.80;;;17.00;98.00;;;;;;4904277;29;20068;-81
2022/04/20 08:29:21;;;;;;;4.28;2.13;;;17.10;97.40;;;;;;4904400;29;20052;-82
2022/04/20 08:31:47;;;;;;;3.55;2.28;;;17.30;96.40;;;;;;4921381;29;20082;-82
2022/04/20 08:34:16;;;;;;;3.15;2.33;;;17.50;96.20;;;;;;4922280;29;20055;-82
2022/04/20 08:36:45;;;;;;;3.92;2.03;;;17.60;95.80;;;;;;4910015;29;20051;-91
2022/04/20 08:39:11;;;;;;;3.00;2.17;;;17.80;95.30;;;;;;4902780;29;20056;-88
2022/04/20 08:41:37;;;;;;;3.00;2.10;;;18.00;95.00;;;;;;4912242;29;20052;-86
2022/04/20 08:44:11;;;;;;;3.63;2.03;;;18.20;94.20;;;;;;4931148;29;20068;-87
2022/04/20 08:46:40;;;;;;;2.67;1.92;;;18.40;93.40;;;;;;4918447;29;20047;-86
2022/04/20 08:49:06;;;;;;;3.20;1.80;;;18.60;92.60;;;;;;4927799;29;20048;-87
2022/04/20 08:52:37;;;;;;;4.50;2.03;;;19.10;92.00;;;;;;4913510;29;20046;-80
2022/04/20 08:54:22;;;;;;;;;;;19.10;91.20;;;;;;4925317;29;20059;-80
2022/04/20 08:59:55;;;;;;;2.22;1.52;;;19.20;89.40;;;;;;4922319;29;20466;-81
2022/04/20 09:02:24;;;;;;;2.67;1.50;;;19.40;86.90;;;;;;4918734;29;20533;-81
2022/04/20 09:04:50;;;;;;;2.88;1.40;;;19.50;82.90;;;;;;4910541;29;21577;-81
2022/04/20 09:07:16;;;;;;;2.72;1.40;;;19.60;81.70;;;;;;4906014;29;20048;-81
2022/04/20 09:09:42;;;;;;;3.42;1.30;;;19.70;77.50;;;;;;4920283;29;20409;-81
2022/04/20 09:12:14;;;;;;;1.60;1.13;;;19.90;75.00;;;;;;4903867;29;20505;-81
2022/04/20 09:14:41;;;;;;;2.70;1.30;;;20.10;71.10;;;;;;4889443;29;20048;-81
2022/04/20 09:17:18;;;;;;;2.30;1.48;;;20.20;69.60;;;;;;4900409;29;20775;-81
2022/04/20 09:19:51;;;;;;;2.50;1.50;;;20.40;66.90;;;;;;4906399;29;20071;-80
2022/04/20 09:22:22;;;;;;;1.83;1.23;;;20.50;66.90;;;;;;4920030;29;20043;-80
2022/04/20 09:25:11;;;;;;;1.65;1.10;;;20.70;67.40;;;;;;4918562;29;20083;-82
2022/04/20 09:27:47;;;;;;;2.05;1.23;;;20.90;62.20;;;;;;4903568;29;20115;-80
2022/04/20 09:30:14;;;;;;;2.40;1.10;;;21.10;64.40;;;;;;4914309;29;20047;-81
2022/04/20 09:32:45;;;;;;;1.77;1.05;;;21.10;63.70;;;;;;4907130;29;20037;-80
2022/04/20 09:35:14;;;;;;;2.17;1.17;;;21.10;61.40;;;;;;4904907;29;20091;-81
2022/04/20 09:37:42;;;;;;;2.13;1.20;;;21.00;60.20;;;;;;4918595;29;20138;-80
2022/04/20 09:40:13;;;;;;;1.85;1.10;;;21.20;59.80;;;;;;4919374;29;20060;-80
2022/04/20 09:43:03;;;;;;;2.08;1.17;;;21.30;59.20;;;;;;4903407;29;20135;-81
2022/04/20 09:45:29;;;;;;;3.05;1.23;;;21.50;56.80;;;;;;4920680;29;20518;-81
2022/04/20 09:50:42;;;;;;;1.80;1.10;;;21.90;58.80;;;;;;4925823;29;20047;-80
2022/04/20 09:53:12;;;;;;;2.70;1.33;;;21.90;58.40;;;;;;4922129;29;20131;-81
2022/04/20 09:55:40;;;;;;;1.88;1.25;;;22.20;58.30;;;;;;4922232;29;20047;-81
2022/04/20 09:58:10;;;;;;;2.85;1.35;;;22.40;57.90;;;;;;4916987;29;20161;-81
2022/04/20 10:00:45;;;;;;;7.15;1.40;;;22.60;56.90;;;;;;4931773;28;20066;-81
2022/04/20 10:03:21;;;;;;;1.77;1.10;;;22.80;56.20;;;;;;4893288;29;20058;-81
2022/04/20 10:05:47;;;;;;;2.30;1.30;;;22.90;56.50;;;;;;4922442;29;20435;-80
2022/04/20 10:08:13;;;;;;;2.25;1.15;;;23.10;55.60;;;;;;4886093;29;20055;-80
2022/04/20 10:10:39;;;;;;;2.13;1.30;;;23.20;54.30;;;;;;4903539;29;20051;-78
2022/04/20 10:13:05;;;;;;;2.30;1.33;;;23.30;54.60;;;;;;4902004;29;20044;-83
2022/04/20 10:18:21;;;;;;;2.60;1.20;;;23.40;53.60;;;;;;4918368;29;20490;-84
2022/04/20 10:20:55;;;;;;;1.60;1.02;;;23.20;52.50;;;;;;4906878;29;20055;-85
2022/04/20 10:23:22;;;;;;;3.67;1.30;;;23.20;51.90;;;;;;4892867;29;20052;-83
2022/04/20 10:25:50;;;;;;;1.50;1.00;;;23.30;52.90;;;;;;4917129;29;20118;-85
2022/04/20 10:28:36;;;;;;;2.97;1.40;;;23.50;53.00;;;;;;4907003;29;20063;-82
2022/04/20 10:31:05;;;;;;;2.70;1.15;;;23.60;52.30;;;;;;4903799;29;20528;-82
2022/04/20 10:33:33;;;;;;;1.90;1.20;;;23.60;51.10;;;;;;4919715;29;20047;-82
2022/04/20 10:36:05;;;;;;;2.15;1.20;;;23.60;50.80;;;;;;4921402;29;20043;-82
2022/04/20 10:38:32;;;;;;;2.17;1.30;;;23.40;50.80;;;;;;4904943;29;20135;-83
2022/04/20 10:41:08;;;;;;;3.10;1.10;;;23.40;50.10;;;;;;4918896;29;20051;-83
2022/04/20 10:44:06;;;;;;;2.08;1.15;;;23.60;50.00;;;;;;4884865;29;21049;-82
2022/04/20 10:46:31;;;;;;;1.83;1.10;;;23.70;49.60;;;;;;4902479;29;20063;-81
2022/04/20 10:49:07;;;;;;;1.88;1.10;;;24.00;50.40;;;;;;4905274;29;20474;-82
2022/04/20 10:51:35;;;;;;;2.83;1.10;;;24.10;48.70;;;;;;4904061;29;20426;-82
2022/04/20 10:54:20;;;;;;;4.18;1.30;;;24.10;48.00;;;;;;4915608;29;20139;-80
2022/04/20 10:57:09;;;;;;;2.97;1.35;;;24.00;46.50;;;;;;4922093;29;20103;-82
2022/04/20 10:59:35;;;;;;;1.80;1.10;;;24.00;47.80;;;;;;4906022;29;20493;-81
2022/04/20 11:02:04;;;;;;;3.35;1.30;;;24.20;48.30;;;;;;4912153;29;20059;-80
2022/04/20 11:04:41;;;;;;;2.15;1.05;;;24.40;47.90;;;;;;4931417;29;20135;-82
2022/04/20 11:07:07;;;;;;;1.38;1.00;;;24.60;47.40;;;;;;4927375;29;20058;-82
2022/04/20 11:09:42;;;;;;;1.60;1.02;;;24.70;47.90;;;;;;4919060;29;20051;-83
2022/04/20 11:21:03;;;;;;;1.60;1.00;;;25.20;44.80;;;;;;4922287;29;20056;-82
2022/04/20 11:23:57;;;;;;;2.47;1.00;;;25.30;44.80;;;;;;4904713;29;20055;-83
2022/04/20 11:26:39;;;;;;;1.40;0.90;;;25.40;44.20;;;;;;4921179;29;20056;-81
2022/04/20 11:29:26;;;;;;;1.70;0.90;;;25.50;45.00;;;;;;4903681;29;20127;-82
2022/04/20 11:32:00;;;;;;;1.40;0.95;;;25.60;44.40;;;;;;4914193;29;20135;-88
2022/04/20 11:34:28;;;;;;;1.20;0.70;;;25.50;44.90;;;;;;4926721;29;20092;-87
2022/04/20 11:37:00;;;;;;;2.72;1.08;;;25.30;44.20;;;;;;4939722;29;20039;-88
2022/04/20 11:39:28;;;;;;;1.60;1.00;;;25.20;44.50;;;;;;4920177;29;20055;-90
2022/04/20 11:42:02;;;;;;;1.30;0.90;;;25.20;45.10;;;;;;4909870;29;20496;-86
2022/04/20 11:44:29;;;;;;;1.50;0.90;;;25.20;45.00;;;;;;4915613;29;20064;-90
2022/04/20 11:47:01;;;;;;;0.90;0.77;;;25.10;45.00;;;;;;4925829;29;20115;-91
2022/04/20 11:49:48;;;;;;;1.58;0.73;;;24.20;44.20;;;;;;4913825;29;20051;-90
2022/04/20 11:52:18;;;;;;;1.92;0.80;;;25.10;43.70;;;;;;4923417;29;20039;-91
2022/04/20 11:54:46;;;;;;;1.73;0.93;;;25.10;43.80;;;;;;4894374;29;20051;-90
2022/04/20 11:57:15;;;;;;;3.38;1.25;;;25.10;43.60;;;;;;4920105;29;21028;-91
2022/04/20 11:59:50;;;;;;;2.83;1.10;;;25.00;43.20;;;;;;4913819;29;20063;-91
2022/04/20 12:02:19;;;;;;;2.10;0.80;;;25.10;43.90;;;;;;4912183;29;20047;-89
2022/04/20 12:04:46;;;;;;;1.52;0.90;;;25.10;43.50;;;;;;4930628;29;20126;-87
2022/04/20 12:07:16;;;;;;;2.35;1.10;;;25.20;44.10;;;;;;4914817;29;20056;-90
2022/04/20 12:09:45;;;;;;;2.95;1.35;;;25.30;44.00;;;;;;4914666;29;20489;-90
2022/04/20 12:12:18;;;;;;;1.95;1.10;;;25.30;44.00;;;;;;4912387;29;20052;-88
2022/04/20 12:14:46;;;;;;;3.10;1.17;;;25.50;44.20;;;;;;4909535;29;20460;-87
2022/04/20 12:17:20;;;;;;;1.70;0.90;;;25.60;43.90;;;;;;4910139;29;20139;-87
2022/04/20 12:19:53;;;;;;;3.08;1.25;;;25.60;42.30;;;;;;4910212;29;20456;-87
2022/04/20 12:22:21;;;;;;;2.35;1.13;;;25.50;42.60;;;;;;4912588;29;20402;-89
2022/04/20 12:25:02;;;;;;;2.40;1.20;;;25.30;42.80;;;;;;4911003;29;20044;-87
2022/04/20 12:27:28;;;;;;;2.05;1.10;;;25.30;43.00;;;;;;4909828;29;20055;-87
2022/04/20 12:29:59;;;;;;;1.75;1.00;;;25.10;43.20;;;;;;4914018;29;20402;-89
2022/04/20 12:32:33;;;;;;;2.20;1.00;;;25.40;43.50;;;;;;4912562;29;20100;-89
2022/04/20 12:35:02;;;;;;;0.85;0.70;;;25.60;42.90;;;;;;4914387;29;20048;-92
2022/04/20 12:37:31;;;;;;;2.13;0.90;;;25.60;43.00;;;;;;4914980;29;20442;-88
2022/04/20 12:40:17;;;;;;;1.38;1.00;;;25.70;42.90;;;;;;4907434;29;20059;-88
2022/04/20 12:43:07;;;;;;;2.55;0.95;;;25.80;43.00;;;;;;4912750;29;20047;-88
2022/04/20 12:45:33;;;;;;;1.15;0.90;;;25.80;42.70;;;;;;4919866;29;20490;-90
2022/04/20 12:48:12;;;;;;;1.45;0.80;;;26.00;42.90;;;;;;4925624;29;20074;-90
2022/04/20 12:50:43;;;;;;;1.60;0.98;;;26.00;42.50;;;;;;4921037;29;20115;-87
2022/04/20 12:53:09;;;;;;;2.13;1.20;;;25.90;42.30;;;;;;4908267;29;20055;-86
2022/04/20 13:04:16;;;;;;;2.80;1.20;;;26.00;43.50;;;;;;4928649;29;20596;-86
2022/04/20 13:06:44;;;;;;;2.90;1.23;;;26.20;45.00;;;;;;4925532;29;20047;-84
2022/04/20 13:09:10;;;;;;;3.65;1.50;;;26.20;46.00;;;;;;4909388;29;20051;-88
2022/04/20 13:11:36;;;;;;;4.70;1.63;;;26.30;46.20;;;;;;4908261;29;20112;-89
2022/04/20 13:14:03;;;;;;;2.33;1.50;;;26.20;46.30;;;;;;4940706;29;20493;-92
2022/04/20 13:16:29;;;;;;;2.45;1.55;;;26.10;46.20;;;;;;4912077;29;20048;-89
2022/04/20 13:18:54;;;;;;;3.40;1.50;;;26.10;46.50;;;;;;4928277;29;20033;-92
2022/04/20 13:21:21;;;;;;;4.68;1.98;;;26.10;47.10;;;;;;4918435;28;20079;-92
2022/04/20 13:23:50;;;;;;;4.05;1.80;;;26.20;47.40;;;;;;4930962;29;20044;-90
2022/04/20 13:29:01;;;;;;;3.42;1.55;;;26.30;47.90;;;;;;4931289;29;20056;-89
2022/04/20 13:31:27;;;;;;;6.07;1.65;;;26.00;48.10;;;;;;4911072;29;20047;-91
2022/04/20 13:33:53;;;;;;;5.70;1.67;;;25.80;48.50;;;;;;4927529;29;20055;-91
2022/04/20 13:36:20;;;;;;;3.80;1.67;;;25.40;48.90;;;;;;4911406;29;20044;-91
2022/04/20 13:38:48;;;;;;;5.00;1.95;;;25.20;49.30;;;;;;4905529;29;20134;-92
2022/04/20 13:41:17;;;;;;;4.35;2.00;;;24.90;49.40;;;;;;4903827;29;20126;-90
2022/04/20 13:43:43;;;;;;;3.50;1.70;;;24.40;49.60;;;;;;4914633;29;20041;-89
2022/04/20 13:46:09;;;;;;;3.47;1.60;;;24.60;50.10;;;;;;4912539;29;20059;-89
2022/04/20 13:48:35;;;;;;;5.07;1.70;;;24.50;50.40;;;;;;4928744;29;20509;-88